Time;durP1;ratioP1;P1;durP2;ratioP2;P2;SDS_P1;SDS_P2;PMS_P1;PMS_P2;Temp;Humidity;BMP_temperature;BMP_pressure;BME280_temperature;BME280_humidity;BME280_pressure;Samples;Min_cycle;Max_cycle;Signal;HPM_P1;HPM_P2
2021/10/24 00:00:54;;;;;;;2.90;1.73;;;11.00;89.40;;;;;;5006122;28;20033;-78
2021/10/24 00:03:20;;;;;;;3.65;1.88;;;11.00;89.40;;;;;;4997191;28;20098;-79
2021/10/24 00:05:46;;;;;;;2.50;1.80;;;11.10;89.20;;;;;;4999684;28;20092;-80
2021/10/24 00:08:12;;;;;;;4.22;1.90;;;11.10;88.90;;;;;;5003032;28;20393;-80
2021/10/24 00:10:38;;;;;;;3.63;2.13;;;11.10;88.80;;;;;;5002542;28;20604;-80
2021/10/24 00:13:03;;;;;;;2.97;1.83;;;11.10;88.60;;;;;;4985652;28;20478;-78
2021/10/24 00:15:29;;;;;;;2.50;1.58;;;11.20;88.40;;;;;;5000861;28;20065;-80
2021/10/24 00:17:55;;;;;;;4.43;1.58;;;11.30;88.20;;;;;;4998178;28;20485;-79
2021/10/24 00:20:21;;;;;;;2.35;1.90;;;11.30;87.60;;;;;;5002367;28;20037;-80
2021/10/24 00:22:47;;;;;;;4.30;2.10;;;11.30;88.30;;;;;;5005691;28;20024;-81
2021/10/24 00:25:12;;;;;;;3.40;1.80;;;11.30;88.40;;;;;;5002457;28;20403;-80
2021/10/24 00:27:38;;;;;;;5.15;1.75;;;11.30;89.10;;;;;;5001434;28;20481;-80
2021/10/24 00:30:05;;;;;;;3.25;2.05;;;11.20;89.60;;;;;;5009982;28;20038;-79
2021/10/24 00:32:31;;;;;;;3.65;1.90;;;11.10;89.80;;;;;;5005045;28;20022;-80
2021/10/24 00:34:56;;;;;;;7.63;1.90;;;11.10;89.40;;;;;;5010042;28;20496;-80
2021/10/24 00:37:23;;;;;;;2.13;1.73;;;11.20;89.10;;;;;;5002977;28;20034;-80
2021/10/24 00:39:48;;;;;;;4.95;2.00;;;11.20;89.50;;;;;;5006112;28;20029;-80
2021/10/24 00:42:14;;;;;;;3.25;1.77;;;11.20;89.80;;;;;;5007568;28;20034;-80
2021/10/24 00:44:40;;;;;;;2.95;1.60;;;11.10;89.80;;;;;;5010435;28;20115;-80
2021/10/24 00:47:06;;;;;;;3.50;1.98;;;11.10;90.00;;;;;;4992569;28;20552;-80
2021/10/24 00:49:33;;;;;;;2.60;1.40;;;11.10;90.30;;;;;;5005205;28;20087;-79
2021/10/24 00:52:00;;;;;;;8.02;2.33;;;11.10;90.40;;;;;;5000613;28;20025;-80
2021/10/24 00:54:28;;;;;;;4.50;2.00;;;11.10;90.60;;;;;;5007355;28;20481;-80
2021/10/24 00:56:55;;;;;;;3.72;1.92;;;11.00;90.80;;;;;;5004300;28;20018;-82
2021/10/24 00:59:25;;;;;;;12.23;2.30;;;11.00;91.10;;;;;;5006935;28;20173;-80
2021/10/24 01:01:51;;;;;;;4.75;1.95;;;10.90;91.20;;;;;;5010926;28;20076;-79
2021/10/24 01:04:18;;;;;;;3.65;2.35;;;10.90;91.50;;;;;;4996243;28;20038;-80
2021/10/24 01:06:45;;;;;;;3.60;1.70;;;10.80;91.50;;;;;;5012150;28;20033;-79
2021/10/24 01:09:14;;;;;;;2.55;1.90;;;10.80;91.80;;;;;;5010443;28;20508;-80
2021/10/24 01:11:41;;;;;;;6.50;2.60;;;10.80;91.90;;;;;;5012226;28;20022;-83
2021/10/24 01:14:08;;;;;;;6.32;2.40;;;10.80;92.20;;;;;;5011744;28;20498;-79
2021/10/24 01:16:35;;;;;;;6.88;2.40;;;10.80;92.30;;;;;;5002419;28;20029;-79
2021/10/24 01:19:03;;;;;;;5.45;2.45;;;10.80;92.10;;;;;;5009987;28;20053;-79
2021/10/24 01:21:29;;;;;;;3.92;2.47;;;10.80;92.30;;;;;;5007661;28;20428;-79
2021/10/24 01:23:55;;;;;;;4.78;2.22;;;10.80;92.50;;;;;;5009845;28;20017;-80
2021/10/24 01:26:21;;;;;;;4.90;2.05;;;10.70;92.50;;;;;;5000178;28;20629;-79
2021/10/24 01:28:47;;;;;;;4.63;2.20;;;10.70;92.70;;;;;;4987215;28;20029;-80
2021/10/24 01:31:12;;;;;;;4.88;2.03;;;10.70;92.70;;;;;;5011966;28;20084;-79
2021/10/24 01:33:38;;;;;;;5.90;2.10;;;10.70;92.70;;;;;;5013592;28;20167;-80
2021/10/24 01:36:07;;;;;;;3.80;1.90;;;10.70;92.90;;;;;;5011549;28;20090;-79
2021/10/24 01:38:34;;;;;;;7.63;2.40;;;10.60;93.30;;;;;;4995826;28;20485;-79
2021/10/24 01:41:00;;;;;;;4.93;2.40;;;10.60;93.20;;;;;;4995741;28;20440;-79
2021/10/24 01:43:27;;;;;;;6.65;1.83;;;10.60;93.40;;;;;;5012165;28;20532;-79
2021/10/24 01:45:54;;;;;;;4.50;2.00;;;10.50;93.50;;;;;;5002018;28;20049;-80
2021/10/24 01:48:20;;;;;;;3.92;2.33;;;10.50;93.90;;;;;;5012983;28;20034;-79
2021/10/24 01:50:47;;;;;;;3.97;1.67;;;10.50;93.80;;;;;;5013140;28;20073;-81
2021/10/24 01:53:18;;;;;;;4.75;2.20;;;10.50;94.10;;;;;;4994447;28;20061;-79
2021/10/24 01:55:44;;;;;;;4.57;2.10;;;10.40;94.50;;;;;;5007187;28;20078;-79
2021/10/24 01:58:10;;;;;;;3.33;1.95;;;10.40;94.90;;;;;;5011888;28;20030;-79
2021/10/24 02:00:36;;;;;;;5.70;2.20;;;10.40;94.70;;;;;;5008225;28;20041;-79
2021/10/24 02:03:02;;;;;;;4.78;2.17;;;10.40;94.80;;;;;;5011372;28;20423;-80
2021/10/24 02:05:28;;;;;;;4.85;2.38;;;10.40;95.40;;;;;;5002355;28;20027;-80
2021/10/24 02:07:53;;;;;;;3.38;2.30;;;10.30;95.30;;;;;;5010190;28;20022;-79
2021/10/24 02:10:19;;;;;;;6.10;2.60;;;10.30;95.50;;;;;;5004539;28;20034;-79
2021/10/24 02:12:46;;;;;;;6.25;2.83;;;10.40;96.30;;;;;;5010717;28;20066;-79
2021/10/24 02:15:12;;;;;;;5.47;2.25;;;10.30;95.90;;;;;;4994070;28;20026;-80
2021/10/24 02:17:38;;;;;;;4.88;2.47;;;10.40;96.10;;;;;;5012309;28;20025;-79
2021/10/24 02:20:06;;;;;;;7.00;2.60;;;10.40;96.00;;;;;;5010733;28;20393;-79
2021/10/24 02:22:31;;;;;;;4.13;2.40;;;10.40;96.30;;;;;;4988752;28;20026;-79
2021/10/24 02:24:57;;;;;;;5.35;3.08;;;10.30;96.30;;;;;;5011212;28;20405;-79
2021/10/24 02:27:23;;;;;;;4.88;2.30;;;10.40;96.70;;;;;;5013021;28;20037;-81
2021/10/24 02:29:48;;;;;;;5.35;2.42;;;10.30;96.20;;;;;;5010079;28;20045;-79
2021/10/24 02:32:15;;;;;;;6.13;2.65;;;10.40;96.20;;;;;;4998620;28;20094;-80
2021/10/24 02:34:41;;;;;;;5.57;2.10;;;10.40;96.00;;;;;;4988632;28;20050;-80
2021/10/24 02:37:07;;;;;;;4.57;2.20;;;10.50;96.00;;;;;;5012863;28;20060;-79
2021/10/24 02:39:33;;;;;;;2.70;1.77;;;10.60;95.60;;;;;;5008105;28;20030;-79
2021/10/24 02:41:59;;;;;;;4.43;2.03;;;10.60;95.70;;;;;;5011071;28;20428;-79
2021/10/24 02:44:25;;;;;;;4.88;2.65;;;10.60;95.60;;;;;;5010596;28;20092;-79
2021/10/24 02:46:51;;;;;;;4.28;2.35;;;10.60;95.90;;;;;;5009782;28;20044;-79
2021/10/24 02:49:17;;;;;;;3.65;2.17;;;10.70;95.40;;;;;;5010787;28;20466;-78
2021/10/24 02:51:43;;;;;;;4.93;2.45;;;10.70;95.90;;;;;;4993719;28;20112;-79
2021/10/24 02:54:09;;;;;;;7.32;2.45;;;10.70;95.70;;;;;;5001499;28;20026;-78
2021/10/24 02:56:35;;;;;;;4.20;2.58;;;10.70;95.80;;;;;;4993159;28;20050;-80
2021/10/24 02:59:01;;;;;;;6.97;2.45;;;10.60;96.00;;;;;;5001222;28;20065;-79
2021/10/24 03:01:27;;;;;;;7.38;2.40;;;10.60;96.20;;;;;;5010440;28;20026;-79
2021/10/24 03:03:52;;;;;;;4.30;2.25;;;10.60;96.40;;;;;;4993599;28;20113;-79
2021/10/24 03:06:18;;;;;;;6.55;2.60;;;10.50;97.20;;;;;;5006663;28;20025;-79
2021/10/24 03:08:44;;;;;;;4.57;2.45;;;10.50;96.90;;;;;;5011289;28;20038;-78
2021/10/24 03:11:10;;;;;;;5.95;2.70;;;10.50;97.00;;;;;;5011860;28;20682;-80
2021/10/24 03:13:36;;;;;;;3.92;2.20;;;10.50;97.20;;;;;;4998297;28;20567;-80
2021/10/24 03:16:01;;;;;;;5.22;2.58;;;10.40;98.00;;;;;;5010599;28;20087;-79
2021/10/24 03:18:27;;;;;;;4.18;2.10;;;10.50;97.40;;;;;;5011342;28;20036;-80
2021/10/24 03:20:53;;;;;;;4.15;2.65;;;10.40;97.90;;;;;;5011146;28;20034;-79
2021/10/24 03:23:19;;;;;;;4.15;2.53;;;10.40;97.80;;;;;;4996348;28;20034;-79
2021/10/24 03:25:44;;;;;;;4.95;2.58;;;10.30;98.40;;;;;;5010776;28;20052;-80
2021/10/24 03:28:10;;;;;;;6.03;2.38;;;10.20;98.40;;;;;;5009973;28;20477;-80
2021/10/24 03:30:36;;;;;;;6.18;2.83;;;10.20;99.30;;;;;;5008789;28;20088;-79
2021/10/24 03:33:02;;;;;;;6.53;3.05;;;10.30;98.80;;;;;;5011293;28;20124;-79
2021/10/24 03:35:27;;;;;;;5.85;2.65;;;10.30;98.30;;;;;;5010297;28;20064;-79
2021/10/24 03:37:53;;;;;;;7.70;2.65;;;10.30;98.60;;;;;;5011464;28;20018;-79
2021/10/24 03:40:19;;;;;;;4.97;2.65;;;10.40;98.60;;;;;;5010227;28;20032;-79
2021/10/24 03:42:45;;;;;;;5.68;2.92;;;10.40;99.00;;;;;;5010384;28;20033;-80
2021/10/24 03:45:11;;;;;;;4.57;2.45;;;10.40;98.80;;;;;;5010310;28;20450;-79
2021/10/24 03:47:37;;;;;;;7.13;2.70;;;10.40;98.50;;;;;;5009044;28;20109;-80
2021/10/24 03:50:05;;;;;;;5.07;2.70;;;10.40;98.20;;;;;;5009904;28;20480;-80
2021/10/24 03:52:30;;;;;;;6.25;3.35;;;10.40;99.00;;;;;;5005170;28;20072;-80
2021/10/24 03:54:57;;;;;;;5.57;2.42;;;10.40;98.50;;;;;;5010087;28;20029;-80
2021/10/24 03:57:23;;;;;;;4.57;2.75;;;10.40;98.40;;;;;;5009641;28;20022;-79
2021/10/24 03:59:49;;;;;;;6.20;2.88;;;10.40;99.30;;;;;;5009559;28;20026;-79
2021/10/24 04:02:16;;;;;;;5.78;2.70;;;10.30;98.80;;;;;;5010691;28;20096;-80
2021/10/24 04:04:44;;;;;;;4.55;2.80;;;10.40;98.10;;;;;;5010423;28;21124;-79
2021/10/24 04:07:10;;;;;;;3.35;2.17;;;10.40;98.30;;;;;;5011159;28;20408;-80
2021/10/24 04:09:36;;;;;;;3.22;2.25;;;10.40;98.60;;;;;;5009413;28;20038;-79
2021/10/24 04:12:02;;;;;;;5.53;2.70;;;10.40;98.50;;;;;;5011633;28;20026;-79
2021/10/24 04:14:28;;;;;;;7.00;2.42;;;10.40;98.60;;;;;;5010088;28;20033;-81
2021/10/24 04:16:54;;;;;;;4.88;2.05;;;10.40;99.00;;;;;;5010106;28;20018;-80
2021/10/24 04:19:20;;;;;;;4.38;3.10;;;10.40;98.30;;;;;;5009366;28;20033;-80
2021/10/24 04:21:46;;;;;;;5.50;2.65;;;10.40;99.40;;;;;;5009574;28;20082;-80
2021/10/24 04:24:12;;;;;;;6.32;2.63;;;10.40;98.10;;;;;;5000732;28;20022;-80
2021/10/24 04:26:38;;;;;;;5.53;2.40;;;10.40;98.20;;;;;;5008213;28;20036;-80
2021/10/24 04:29:03;;;;;;;5.35;2.35;;;10.30;99.00;;;;;;5007651;28;20088;-79
2021/10/24 04:31:30;;;;;;;4.32;2.60;;;10.30;98.40;;;;;;5007391;28;20052;-80
2021/10/24 04:33:56;;;;;;;3.05;2.50;;;10.30;98.20;;;;;;5009983;28;20032;-78
2021/10/24 04:36:22;;;;;;;4.75;2.55;;;10.30;98.60;;;;;;5010809;28;20029;-79
2021/10/24 04:38:48;;;;;;;5.97;2.30;;;10.20;99.00;;;;;;5009018;28;20080;-78
2021/10/24 04:41:14;;;;;;;6.68;3.05;;;10.20;98.70;;;;;;5014709;28;20026;-79
2021/10/24 04:43:41;;;;;;;7.22;2.97;;;10.20;99.40;;;;;;4994926;28;20058;-79
2021/10/24 04:46:07;;;;;;;6.40;3.15;;;10.20;98.70;;;;;;5014086;28;20546;-80
2021/10/24 04:48:33;;;;;;;7.07;3.05;;;10.20;98.90;;;;;;5011922;28;20033;-79
2021/10/24 04:50:59;;;;;;;7.18;2.90;;;10.10;99.40;;;;;;5012833;28;20168;-80
2021/10/24 04:53:25;;;;;;;4.53;2.80;;;10.10;99.60;;;;;;5010872;28;20540;-80
2021/10/24 04:55:51;;;;;;;7.22;2.63;;;10.10;99.40;;;;;;4993082;28;20388;-81
2021/10/24 04:58:17;;;;;;;4.78;2.60;;;10.10;98.50;;;;;;5013235;28;20018;-80
2021/10/24 05:00:43;;;;;;;3.60;2.38;;;10.10;98.70;;;;;;5011295;28;20052;-80
2021/10/24 05:03:09;;;;;;;6.68;2.25;;;10.00;98.40;;;;;;5013243;28;20674;-80
2021/10/24 05:05:34;;;;;;;2.97;2.30;;;10.10;98.70;;;;;;5011088;28;20396;-80
2021/10/24 05:08:00;;;;;;;7.20;2.42;;;10.00;98.70;;;;;;4982174;28;20485;-80
2021/10/24 05:10:26;;;;;;;5.85;2.67;;;9.90;98.80;;;;;;5008724;28;20062;-79
2021/10/24 05:12:51;;;;;;;5.25;2.50;;;10.00;98.90;;;;;;5011312;28;20022;-80
2021/10/24 05:15:19;;;;;;;5.00;2.63;;;10.00;99.20;;;;;;5013245;28;20029;-80
2021/10/24 05:17:45;;;;;;;6.72;2.85;;;10.00;98.50;;;;;;5014488;28;20025;-81
2021/10/24 05:20:11;;;;;;;3.58;2.60;;;10.00;98.80;;;;;;5012740;28;20183;-81
2021/10/24 05:22:37;;;;;;;5.82;2.90;;;10.00;99.10;;;;;;5002600;28;20045;-81
2021/10/24 05:25:03;;;;;;;5.53;2.50;;;10.00;97.80;;;;;;5010216;28;20026;-80
2021/10/24 05:27:29;;;;;;;2.83;2.30;;;10.10;97.40;;;;;;5014627;28;20112;-81
2021/10/24 05:29:55;;;;;;;6.32;2.33;;;10.10;97.50;;;;;;5012208;28;20448;-81
2021/10/24 05:32:20;;;;;;;5.00;2.70;;;10.10;98.10;;;;;;4996453;28;20037;-81
2021/10/24 05:34:46;;;;;;;4.57;2.42;;;10.10;98.70;;;;;;5013005;28;20049;-80
2021/10/24 05:37:12;;;;;;;5.03;2.80;;;10.00;98.80;;;;;;5013180;28;20022;-81
2021/10/24 05:39:38;;;;;;;3.88;2.22;;;10.00;99.20;;;;;;5011522;28;20084;-81
2021/10/24 05:42:03;;;;;;;4.63;2.45;;;9.90;98.80;;;;;;4996613;28;20068;-81
2021/10/24 05:44:30;;;;;;;4.93;2.33;;;10.00;98.90;;;;;;5009686;28;20460;-81
2021/10/24 05:46:55;;;;;;;6.18;2.58;;;10.00;99.20;;;;;;5013948;28;20097;-81
2021/10/24 05:49:22;;;;;;;3.80;2.40;;;10.00;98.30;;;;;;5012671;28;20140;-81
2021/10/24 05:51:49;;;;;;;4.18;2.13;;;10.00;98.20;;;;;;4994763;28;20036;-82
2021/10/24 05:54:14;;;;;;;4.13;2.13;;;10.00;98.20;;;;;;5012806;28;20029;-80
2021/10/24 05:56:40;;;;;;;5.50;2.40;;;9.90;98.30;;;;;;5010794;28;20396;-81
2021/10/24 05:59:06;;;;;;;6.43;2.50;;;9.90;98.80;;;;;;4990469;28;20029;-80
2021/10/24 06:01:32;;;;;;;4.70;2.30;;;9.90;98.50;;;;;;5001317;28;20029;-80
2021/10/24 06:03:57;;;;;;;4.40;2.20;;;10.00;98.40;;;;;;5005449;28;20053;-80
2021/10/24 06:06:23;;;;;;;3.83;2.13;;;10.10;97.90;;;;;;5012471;28;20026;-80
2021/10/24 06:08:50;;;;;;;4.90;2.17;;;10.20;97.60;;;;;;5011610;28;20113;-80
2021/10/24 06:11:45;;;;;;;6.00;2.40;;;10.20;97.60;;;;;;4995435;28;20102;-80
2021/10/24 06:14:11;;;;;;;3.28;2.40;;;10.40;96.30;;;;;;5011694;28;20025;-80
2021/10/24 06:16:37;;;;;;;5.43;2.58;;;10.50;95.70;;;;;;5012889;28;20021;-81
2021/10/24 06:19:03;;;;;;;6.03;2.50;;;10.60;95.70;;;;;;4993185;28;20034;-81
2021/10/24 06:21:28;;;;;;;5.05;2.35;;;10.70;95.50;;;;;;5011206;28;20018;-80
2021/10/24 06:23:54;;;;;;;3.85;2.22;;;10.80;95.30;;;;;;5010647;28;20025;-82
2021/10/24 06:26:20;;;;;;;4.63;2.70;;;10.90;94.70;;;;;;4993912;28;20029;-80
2021/10/24 06:28:45;;;;;;;2.97;2.00;;;11.00;94.30;;;;;;5009404;28;20161;-80
2021/10/24 06:31:11;;;;;;;3.92;2.00;;;11.10;93.80;;;;;;5012537;28;20484;-82
2021/10/24 06:33:37;;;;;;;8.48;2.40;;;11.10;93.50;;;;;;5012593;28;20100;-80
2021/10/24 06:36:04;;;;;;;5.15;2.40;;;11.20;93.40;;;;;;5010284;28;20093;-82
2021/10/24 06:38:31;;;;;;;6.43;1.92;;;11.20;92.80;;;;;;4992380;28;20137;-82
2021/10/24 06:40:56;;;;;;;3.50;2.15;;;11.30;92.80;;;;;;5015421;28;20018;-85
2021/10/24 07:07:51;;;;;;;3.55;1.92;;;11.60;91.20;;;;;;5071018;28;20416;-85
2021/10/24 07:10:18;;;;;;;5.30;2.38;;;11.60;91.50;;;;;;5057971;28;20033;-83
2021/10/24 07:12:44;;;;;;;5.57;2.15;;;11.70;91.70;;;;;;5065498;28;20025;-83
2021/10/24 07:15:10;;;;;;;4.90;2.25;;;11.80;91.40;;;;;;5058995;28;20024;-87
2021/10/24 07:17:37;;;;;;;4.45;1.90;;;11.80;91.50;;;;;;5065392;28;20021;-83
2021/10/24 07:20:05;;;;;;;4.07;2.30;;;11.90;90.90;;;;;;5061861;28;20033;-89
2021/10/24 07:22:30;;;;;;;6.53;2.03;;;12.00;90.60;;;;;;5065750;28;20043;-88
2021/10/24 07:24:56;;;;;;;5.82;2.10;;;12.00;90.40;;;;;;5071894;28;20025;-88
2021/10/24 07:27:22;;;;;;;4.32;2.00;;;12.10;90.00;;;;;;5070348;28;20037;-86
2021/10/24 07:29:47;;;;;;;5.43;1.90;;;12.10;90.30;;;;;;5064605;28;20345;-87
2021/10/24 07:32:13;;;;;;;3.53;1.80;;;12.20;90.30;;;;;;5052394;28;20033;-89
2021/10/24 07:34:39;;;;;;;3.63;1.98;;;12.20;89.30;;;;;;5052271;28;20132;-88
2021/10/24 07:37:04;;;;;;;5.25;2.15;;;12.20;88.80;;;;;;5051087;28;20033;-88
2021/10/24 07:39:30;;;;;;;3.70;1.88;;;12.30;88.00;;;;;;5052390;28;20017;-87
2021/10/24 07:41:56;;;;;;;7.10;1.85;;;12.30;87.50;;;;;;5050718;28;20083;-85
2021/10/24 07:44:22;;;;;;;5.20;2.00;;;12.50;86.90;;;;;;5057303;28;20068;-85
2021/10/24 07:46:53;;;;;;;3.45;2.10;;;12.50;85.50;;;;;;5057633;28;20394;-85
2021/10/24 07:49:19;;;;;;;3.33;1.80;;;12.60;86.30;;;;;;5051865;28;20044;-81
2021/10/24 07:51:45;;;;;;;4.03;2.28;;;12.60;85.90;;;;;;5068506;28;20483;-85
2021/10/24 07:54:11;;;;;;;3.20;1.75;;;12.70;85.50;;;;;;5060362;28;20017;-85
2021/10/24 07:56:36;;;;;;;7.00;3.20;;;12.80;84.60;;;;;;5049457;28;20037;-84
2021/10/24 07:59:04;;;;;;;3.45;1.85;;;12.80;84.30;;;;;;5053190;28;20032;-84
2021/10/24 08:01:36;;;;;;;6.90;2.03;;;12.90;84.60;;;;;;5062232;28;20025;-84
2021/10/24 08:04:03;;;;;;;2.53;1.73;;;13.00;84.10;;;;;;5050759;28;20041;-86
2021/10/24 08:06:32;;;;;;;4.78;1.48;;;13.10;82.70;;;;;;5048464;28;20045;-85
2021/10/24 08:08:58;;;;;;;3.53;1.88;;;13.10;83.10;;;;;;5058840;28;20025;-84
2021/10/24 08:11:25;;;;;;;3.88;1.98;;;13.20;81.80;;;;;;5062978;28;20036;-85
2021/10/24 08:13:50;;;;;;;3.05;1.40;;;13.20;81.30;;;;;;5061087;28;20083;-83
2021/10/24 08:16:16;;;;;;;4.50;1.88;;;13.20;81.40;;;;;;5060363;28;20025;-81
2021/10/24 08:18:42;;;;;;;3.58;1.70;;;13.30;82.60;;;;;;5047784;28;20756;-78
2021/10/24 08:21:08;;;;;;;3.78;1.88;;;13.30;82.80;;;;;;5040401;28;20079;-80
2021/10/24 08:23:33;;;;;;;4.05;1.88;;;13.30;83.30;;;;;;5033554;28;20071;-81
2021/10/24 08:25:59;;;;;;;3.20;1.80;;;13.40;84.00;;;;;;5035472;28;20041;-79
2021/10/24 08:28:25;;;;;;;2.45;1.83;;;13.50;81.00;;;;;;5044852;28;20051;-81
2021/10/24 08:30:52;;;;;;;6.03;1.90;;;13.50;82.40;;;;;;5037699;28;20022;-81
2021/10/24 08:33:18;;;;;;;3.60;1.85;;;13.60;82.00;;;;;;5036478;28;20117;-79
2021/10/24 08:35:44;;;;;;;4.57;2.03;;;13.70;80.70;;;;;;5038132;28;20037;-82
2021/10/24 08:38:11;;;;;;;3.53;1.60;;;13.80;83.50;;;;;;5039636;28;20032;-84
2021/10/24 08:40:40;;;;;;;5.70;2.10;;;13.90;79.70;;;;;;5041929;28;20259;-81
2021/10/24 08:43:14;;;;;;;5.57;1.90;;;13.90;80.00;;;;;;5053777;28;20032;-85
2021/10/24 08:45:42;;;;;;;5.95;1.80;;;13.90;78.60;;;;;;5054426;28;20051;-89
2021/10/24 08:48:08;;;;;;;3.63;1.85;;;13.90;80.10;;;;;;5047841;28;20033;-89
2021/10/24 08:50:34;;;;;;;2.72;1.70;;;14.00;77.90;;;;;;5045496;28;20121;-91
2021/10/24 08:53:04;;;;;;;4.38;1.73;;;14.10;80.10;;;;;;5051892;28;20031;-81
2021/10/24 08:55:31;;;;;;;4.00;1.80;;;14.20;78.50;;;;;;5049570;28;20034;-81
2021/10/24 08:57:57;;;;;;;5.95;1.70;;;14.20;76.80;;;;;;5031787;28;20550;-84
2021/10/24 09:00:23;;;;;;;4.60;2.03;;;14.20;77.10;;;;;;5042339;28;20499;-78
2021/10/24 09:03:00;;;;;;;3.38;1.73;;;14.20;78.70;;;;;;5048436;28;20021;-83
2021/10/24 09:05:36;;;;;;;4.00;1.55;;;14.30;77.70;;;;;;5045353;28;20039;-82
2021/10/24 09:08:03;;;;;;;4.72;1.70;;;14.30;80.20;;;;;;5043371;28;20029;-85
2021/10/24 09:10:56;;;;;;;2.95;1.30;;;14.40;76.90;;;;;;5045241;28;20017;-84
2021/10/24 09:13:27;;;;;;;3.67;1.73;;;14.40;77.70;;;;;;5047040;28;20025;-82
2021/10/24 09:16:07;;;;;;;4.40;1.67;;;14.50;77.10;;;;;;5040207;28;20041;-83
2021/10/24 09:18:37;;;;;;;2.92;1.33;;;14.60;77.60;;;;;;5052505;28;20102;-84
2021/10/24 09:21:15;;;;;;;7.70;1.77;;;14.60;75.60;;;;;;5038765;28;20121;-81
2021/10/24 09:23:50;;;;;;;9.95;1.65;;;14.60;75.80;;;;;;5040021;28;20026;-81
2021/10/24 09:26:27;;;;;;;4.50;1.70;;;14.70;76.30;;;;;;5040869;28;20041;-91
2021/10/24 09:29:14;;;;;;;3.35;1.23;;;14.80;74.20;;;;;;5041948;28;20029;-85
2021/10/24 09:31:49;;;;;;;6.10;1.58;;;14.70;73.40;;;;;;5049450;28;20136;-89
2021/10/24 09:34:25;;;;;;;2.97;1.40;;;14.80;74.90;;;;;;5031783;28;20025;-87
2021/10/24 09:36:59;;;;;;;5.05;1.50;;;14.90;74.00;;;;;;5051147;28;20029;-76
2021/10/24 09:39:44;;;;;;;1.92;1.50;;;15.00;74.30;;;;;;5031416;28;20029;-75
2021/10/24 09:42:13;;;;;;;5.00;1.88;;;15.10;74.40;;;;;;5060212;28;20017;-86
2021/10/24 09:45:01;;;;;;;3.10;1.65;;;15.10;71.50;;;;;;5055208;28;20054;-88
2021/10/24 09:47:27;;;;;;;8.18;1.73;;;15.10;71.70;;;;;;5053847;28;20748;-84
2021/10/24 09:49:53;;;;;;;5.55;1.80;;;15.10;73.10;;;;;;5049190;28;20017;-83
2021/10/24 09:52:33;;;;;;;4.05;1.65;;;15.20;72.00;;;;;;5048829;28;20027;-81
2021/10/24 09:55:00;;;;;;;3.22;1.63;;;15.30;71.70;;;;;;5044975;28;20020;-84
2021/10/24 09:57:27;;;;;;;5.93;1.70;;;15.30;69.70;;;;;;5047518;28;20484;-84
2021/10/24 09:59:54;;;;;;;2.83;1.38;;;15.40;69.80;;;;;;5048774;28;20242;-87
2021/10/24 10:02:21;;;;;;;4.95;1.63;;;15.40;69.40;;;;;;5067841;28;20032;-83
2021/10/24 10:04:47;;;;;;;1.80;1.17;;;15.30;69.50;;;;;;5047806;28;20036;-83
2021/10/24 10:07:17;;;;;;;4.15;1.67;;;15.40;71.40;;;;;;5036202;28;20545;-89
2021/10/24 10:09:43;;;;;;;3.78;2.17;;;15.50;70.70;;;;;;5045644;28;20094;-86
2021/10/24 10:12:13;;;;;;;4.93;1.67;;;15.60;69.30;;;;;;5042530;28;20033;-90
2021/10/24 10:14:41;;;;;;;19.70;9.50;;;15.60;68.00;;;;;;5046324;28;20027;-83
2021/10/24 10:17:13;;;;;;;98.30;42.47;;;15.50;68.30;;;;;;5039328;28;20018;-83
2021/10/24 10:19:41;;;;;;;33.90;13.52;;;15.50;71.80;;;;;;5042964;28;20440;-81
2021/10/24 10:22:24;;;;;;;6.38;2.85;;;15.60;71.20;;;;;;5030710;28;20096;-82
2021/10/24 10:24:59;;;;;;;10.05;4.30;;;15.60;70.60;;;;;;5036824;28;20106;-81
2021/10/24 10:27:27;;;;;;;9.02;4.45;;;15.80;69.70;;;;;;5034078;28;20106;-79
2021/10/24 10:29:59;;;;;;;26.58;9.63;;;15.90;70.30;;;;;;5043368;28;20056;-83
2021/10/24 10:32:45;;;;;;;10.73;3.80;;;16.00;71.20;;;;;;5037822;28;20057;-82
2021/10/24 10:35:12;;;;;;;25.05;12.00;;;16.10;68.00;;;;;;5043677;28;20154;-82
2021/10/24 10:37:44;;;;;;;9.70;4.30;;;16.20;67.90;;;;;;5034455;28;20492;-81
2021/10/24 10:40:15;;;;;;;8.13;3.22;;;16.10;69.50;;;;;;5033927;28;20029;-79
2021/10/24 10:42:44;;;;;;;13.90;4.85;;;16.30;69.40;;;;;;5029366;28;20029;-84
2021/10/24 10:45:16;;;;;;;4.55;3.05;;;16.30;67.30;;;;;;5032486;28;20064;-86
2021/10/24 10:48:20;;;;;;;4.82;2.38;;;16.30;68.50;;;;;;5044300;28;20067;-81
2021/10/24 10:50:47;;;;;;;6.20;2.85;;;16.40;68.00;;;;;;5033728;28;20103;-79
2021/10/24 10:53:33;;;;;;;8.40;3.20;;;16.40;67.80;;;;;;5035002;28;20068;-75
2021/10/24 10:56:01;;;;;;;7.68;2.72;;;16.40;67.30;;;;;;5040537;28;20307;-79
2021/10/24 10:58:43;;;;;;;4.22;1.83;;;16.40;67.00;;;;;;5034920;28;20066;-78
2021/10/24 11:01:18;;;;;;;5.47;1.85;;;16.40;67.30;;;;;;5039799;28;20103;-78
2021/10/24 11:03:46;;;;;;;4.47;2.30;;;16.40;68.30;;;;;;5029258;28;20029;-78
2021/10/24 11:06:38;;;;;;;3.45;1.90;;;16.50;69.80;;;;;;5037955;28;20076;-78
2021/10/24 11:09:41;;;;;;;6.85;1.92;;;16.70;68.70;;;;;;5030279;28;20072;-78
2021/10/24 11:12:31;;;;;;;4.90;2.67;;;16.80;66.50;;;;;;5048397;28;20029;-78
2021/10/24 11:15:07;;;;;;;7.63;2.33;;;16.80;65.80;;;;;;5031240;28;20072;-78
2021/10/24 11:17:42;;;;;;;8.23;3.67;;;16.70;66.30;;;;;;5035484;28;20040;-81
2021/10/24 11:20:17;;;;;;;7.25;2.42;;;16.70;66.50;;;;;;5039636;28;20437;-78
2021/10/24 11:22:52;;;;;;;4.53;2.15;;;16.70;66.50;;;;;;5031215;28;20119;-79
2021/10/24 11:25:27;;;;;;;7.18;2.85;;;16.80;66.40;;;;;;5030596;28;20025;-78
2021/10/24 11:27:52;;;;;;;5.03;2.13;;;16.80;66.00;;;;;;5027050;28;20225;-80
2021/10/24 11:30:19;;;;;;;7.28;1.85;;;17.00;66.00;;;;;;5036137;28;20024;-81
2021/10/24 11:32:53;;;;;;;3.65;1.90;;;17.00;66.50;;;;;;5034007;28;20039;-81
2021/10/24 11:35:19;;;;;;;3.42;1.85;;;17.00;65.20;;;;;;5037985;28;20022;-79
2021/10/24 11:37:59;;;;;;;4.97;1.90;;;17.00;63.90;;;;;;5047421;28;20117;-80
2021/10/24 11:40:27;;;;;;;2.72;1.77;;;17.00;65.50;;;;;;5037026;28;20021;-81
2021/10/24 11:42:59;;;;;;;4.32;2.05;;;17.00;65.50;;;;;;5047911;28;20155;-78
2021/10/24 11:45:27;;;;;;;7.15;1.83;;;17.10;64.70;;;;;;5034418;28;20064;-78
2021/10/24 11:48:00;;;;;;;4.80;2.03;;;17.20;65.20;;;;;;5041215;28;20529;-78
2021/10/24 11:50:41;;;;;;;2.25;1.42;;;17.30;64.00;;;;;;5035050;28;20029;-79
2021/10/24 11:53:08;;;;;;;2.17;1.60;;;17.50;63.40;;;;;;5042057;28;20535;-78
2021/10/24 11:55:35;;;;;;;3.13;1.63;;;17.40;64.30;;;;;;5038723;28;20121;-77
2021/10/24 11:58:22;;;;;;;1.70;1.25;;;17.40;63.20;;;;;;5039723;28;20044;-79
2021/10/24 12:00:51;;;;;;;5.78;2.42;;;17.50;62.60;;;;;;5037591;28;20762;-77
2021/10/24 12:03:35;;;;;;;4.90;1.70;;;18.30;62.50;;;;;;5037527;28;20068;-80
2021/10/24 12:06:03;;;;;;;3.28;1.73;;;21.20;57.20;;;;;;5039778;28;20041;-79
2021/10/24 12:08:48;;;;;;;4.18;1.73;;;24.30;52.40;;;;;;5040557;28;20072;-78
2021/10/24 12:11:17;;;;;;;6.35;2.08;;;26.30;48.50;;;;;;5046804;28;20029;-80
2021/10/24 12:13:45;;;;;;;4.97;2.20;;;27.20;47.30;;;;;;5044149;28;20084;-79
2021/10/24 12:16:31;;;;;;;4.88;1.73;;;27.30;46.10;;;;;;5042841;28;20025;-75
2021/10/24 12:19:20;;;;;;;3.30;1.63;;;27.10;45.50;;;;;;5032433;28;20024;-76
2021/10/24 12:21:56;;;;;;;3.33;1.52;;;26.00;46.90;;;;;;5038397;28;20387;-78
2021/10/24 12:24:24;;;;;;;2.33;1.40;;;26.60;46.10;;;;;;5042338;28;20030;-80
2021/10/24 12:27:36;;;;;;;2.00;1.45;;;27.40;45.00;;;;;;5052699;28;20062;-81
2021/10/24 12:30:21;;;;;;;4.28;1.40;;;28.10;43.70;;;;;;5052489;28;20041;-82
2021/10/24 12:32:55;;;;;;;3.13;1.58;;;29.10;42.80;;;;;;5050894;28;20470;-82
2021/10/24 12:35:22;;;;;;;3.45;1.80;;;29.70;41.50;;;;;;5039827;28;20044;-82
2021/10/24 12:38:01;;;;;;;4.15;1.52;;;29.60;40.50;;;;;;5047578;28;20553;-83
2021/10/24 12:40:29;;;;;;;1.65;1.10;;;30.00;40.70;;;;;;5040921;28;20031;-84
2021/10/24 12:43:07;;;;;;;4.07;1.67;;;30.00;40.60;;;;;;5041527;28;20426;-84
2021/10/24 12:46:03;;;;;;;3.47;1.35;;;29.80;40.20;;;;;;5036339;28;20013;-83
2021/10/24 12:48:43;;;;;;;2.67;1.50;;;29.90;41.30;;;;;;5034044;28;20045;-82
2021/10/24 12:51:45;;;;;;;1.85;1.40;;;30.50;39.80;;;;;;5043606;28;20029;-84
2021/10/24 12:54:12;;;;;;;2.07;1.43;;;30.50;40.80;;;;;;5037907;28;20099;-80
2021/10/24 12:56:40;;;;;;;3.67;1.90;;;29.80;40.10;;;;;;5039779;28;20263;-85
2021/10/24 12:59:07;;;;;;;2.72;1.30;;;29.00;41.80;;;;;;5041110;28;20067;-83
2021/10/24 13:01:34;;;;;;;4.38;1.88;;;28.00;42.80;;;;;;5043281;28;20029;-81
2021/10/24 13:04:01;;;;;;;3.05;1.50;;;28.30;42.70;;;;;;5031030;28;20048;-82
2021/10/24 13:06:31;;;;;;;2.47;1.20;;;28.30;42.70;;;;;;5039773;28;20510;-83
2021/10/24 13:08:58;;;;;;;6.72;1.80;;;28.40;42.90;;;;;;5041957;28;20024;-84
2021/10/24 13:11:26;;;;;;;4.55;1.48;;;28.70;42.00;;;;;;5043015;28;20032;-85
2021/10/24 13:13:52;;;;;;;2.55;1.55;;;28.20;42.50;;;;;;5043300;28;20446;-82
2021/10/24 13:16:18;;;;;;;3.47;1.63;;;28.90;41.30;;;;;;5043039;28;20479;-85
2021/10/24 13:18:44;;;;;;;4.85;1.67;;;28.70;41.20;;;;;;5048827;28;20107;-83